Time;durP1;ratioP1;P1;durP2;ratioP2;P2;SDS_P1;SDS_P2;PMS_P1;PMS_P2;Temp;Humidity;BMP_temperature;BMP_pressure;BME280_temperature;BME280_humidity;BME280_pressure;Samples;Min_cycle;Max_cycle;Signal;HPM_P1;HPM_P2
2022/09/28 00:00:58;;;;;;;3.53;1.50;;;;;;;;;;5087768;28;20484;-69
2022/09/28 00:03:24;;;;;;;4.13;0.93;;;;;;;;;;5086706;28;20440;-69
2022/09/28 00:05:50;;;;;;;6.33;1.37;;;;;;;;;;5088237;28;20484;-69
2022/09/28 00:08:16;;;;;;;1.63;1.00;;;;;;;;;;5089520;28;20909;-68
2022/09/28 00:10:42;;;;;;;2.93;1.43;;;;;;;;;;5087907;28;20441;-69
2022/09/28 00:13:08;;;;;;;1.93;1.20;;;;;;;;;;5089075;28;20511;-69
2022/09/28 00:15:36;;;;;;;2.10;1.33;;;;;;;;;;5088653;28;20444;-69
2022/09/28 00:18:02;;;;;;;5.40;1.20;;;;;;;;;;5090208;28;20916;-69
2022/09/28 00:20:28;;;;;;;5.30;1.33;;;;;;;;;;5089197;28;20425;-69
2022/09/28 00:22:54;;;;;;;7.07;1.93;;;;;;;;;;5089695;28;20966;-69
2022/09/28 00:25:20;;;;;;;1.10;1.03;;;;;;;;;;5088957;28;20516;-69
2022/09/28 00:27:50;;;;;;;4.97;1.20;;;;;;;;;;5089713;28;20439;-69
2022/09/28 00:30:16;;;;;;;2.80;1.30;;;;;;;;;;5088937;28;20460;-68
2022/09/28 00:32:42;;;;;;;3.23;1.63;;;;;;;;;;5088777;28;20429;-69
2022/09/28 00:35:09;;;;;;;2.50;1.70;;;;;;;;;;5089144;28;20444;-69
2022/09/28 00:37:35;;;;;;;3.13;1.20;;;;;;;;;;5089237;28;20448;-69
2022/09/28 00:40:01;;;;;;;6.23;1.17;;;;;;;;;;5088815;28;20436;-68
2022/09/28 00:42:27;;;;;;;1.93;1.33;;;;;;;;;;5085326;28;20511;-69
2022/09/28 00:44:55;;;;;;;7.53;1.07;;;;;;;;;;5089455;28;20565;-69
2022/09/28 00:47:30;;;;;;;0.80;0.80;;;;;;;;;;5088180;28;20434;-69
2022/09/28 00:50:00;;;;;;;3.23;1.37;;;;;;;;;;5088505;28;20497;-69
2022/09/28 00:52:39;;;;;;;6.27;0.97;;;;;;;;;;5088631;28;20425;-69
2022/09/28 00:55:07;;;;;;;3.17;0.90;;;;;;;;;;5088366;28;20424;-69
2022/09/28 00:57:35;;;;;;;1.63;0.67;;;;;;;;;;5089976;28;20469;-69
2022/09/28 01:00:02;;;;;;;1.80;1.07;;;;;;;;;;5089648;28;20511;-69
2022/09/28 01:02:28;;;;;;;3.23;1.10;;;;;;;;;;5086959;28;20436;-69
2022/09/28 01:04:55;;;;;;;4.10;1.90;;;;;;;;;;5085497;28;20511;-69
2022/09/28 01:07:22;;;;;;;1.23;1.00;;;;;;;;;;5089722;28;20417;-69
2022/09/28 01:09:48;;;;;;;2.87;1.00;;;;;;;;;;5089719;28;20423;-69
2022/09/28 01:12:14;;;;;;;2.40;0.70;;;;;;;;;;5087157;28;20444;-69
2022/09/28 01:14:40;;;;;;;1.80;0.97;;;;;;;;;;5089349;28;20416;-69
2022/09/28 01:17:16;;;;;;;2.80;0.73;;;;;;;;;;5089281;28;20459;-69
2022/09/28 01:19:50;;;;;;;2.90;1.20;;;;;;;;;;5089579;28;20456;-70
2022/09/28 01:22:28;;;;;;;0.60;0.60;;;;;;;;;;5087981;28;20916;-69
2022/09/28 01:25:00;;;;;;;2.90;0.70;;;;;;;;;;5086018;28;21001;-69
2022/09/28 01:27:34;;;;;;;5.00;1.10;;;;;;;;;;5086220;28;20451;-69
2022/09/28 01:30:04;;;;;;;5.37;1.17;;;;;;;;;;5089615;28;20416;-70
2022/09/28 01:32:30;;;;;;;0.90;0.77;;;;;;;;;;5084665;28;20474;-68
2022/09/28 01:35:26;;;;;;;1.00;0.67;;;;;;;;;;5086723;28;20428;-69
2022/09/28 01:37:58;;;;;;;3.17;1.00;;;;;;;;;;5058211;28;20182;-69
2022/09/28 01:40:25;;;;;;;2.87;0.93;;;;;;;;;;5087690;28;20520;-69
2022/09/28 01:42:55;;;;;;;1.50;0.80;;;;;;;;;;5087373;28;20433;-69
2022/09/28 01:45:23;;;;;;;0.80;0.80;;;;;;;;;;5088210;28;20638;-69
2022/09/28 01:47:49;;;;;;;0.83;0.83;;;;;;;;;;5088968;28;20901;-69
2022/09/28 01:50:18;;;;;;;3.03;0.67;;;;;;;;;;5089056;28;20425;-69
2022/09/28 01:52:43;;;;;;;0.70;0.70;;;;;;;;;;5085708;28;20433;-69
2022/09/28 01:55:30;;;;;;;2.30;0.80;;;;;;;;;;5085650;28;20548;-69
2022/09/28 01:58:02;;;;;;;1.40;0.87;;;;;;;;;;5088126;28;20463;-68
2022/09/28 02:00:28;;;;;;;1.37;0.77;;;;;;;;;;5088412;28;20533;-69
2022/09/28 02:03:01;;;;;;;1.70;0.80;;;;;;;;;;5088318;28;20432;-69
2022/09/28 02:05:31;;;;;;;3.43;1.00;;;;;;;;;;5088464;28;20515;-69
2022/09/28 02:08:20;;;;;;;0.80;0.67;;;;;;;;;;5091051;28;20436;-69
2022/09/28 02:11:12;;;;;;;3.63;1.20;;;;;;;;;;5078571;28;20448;-69
2022/09/28 02:13:40;;;;;;;1.47;0.70;;;;;;;;;;5085617;28;20437;-69
2022/09/28 02:16:06;;;;;;;0.70;0.70;;;;;;;;;;5091441;28;20425;-69
2022/09/28 02:18:32;;;;;;;2.10;0.83;;;;;;;;;;5092582;28;20964;-69
2022/09/28 02:21:15;;;;;;;2.30;0.90;;;;;;;;;;5091169;28;20924;-69
2022/09/28 02:23:46;;;;;;;2.00;0.70;;;;;;;;;;5092043;28;20845;-68
2022/09/28 02:26:16;;;;;;;2.40;0.90;;;;;;;;;;5090573;28;20440;-69
2022/09/28 02:28:42;;;;;;;2.37;0.57;;;;;;;;;;5091816;28;20527;-69
2022/09/28 02:31:08;;;;;;;1.80;0.80;;;;;;;;;;5091370;28;20524;-69
2022/09/28 02:33:36;;;;;;;4.00;0.73;;;;;;;;;;5092206;28;20695;-69
2022/09/28 02:36:02;;;;;;;0.40;0.40;;;;;;;;;;5091797;28;20420;-69
2022/09/28 02:38:30;;;;;;;0.53;0.53;;;;;;;;;;5092211;28;20413;-69
2022/09/28 02:41:21;;;;;;;6.97;0.60;;;;;;;;;;5090772;28;20432;-69
2022/09/28 02:43:52;;;;;;;1.67;1.57;;;;;;;;;;5091986;28;20433;-69
2022/09/28 02:46:31;;;;;;;1.80;0.60;;;;;;;;;;5090174;28;20442;-69
2022/09/28 02:48:57;;;;;;;0.77;0.77;;;;;;;;;;5091966;28;20435;-68
2022/09/28 02:51:35;;;;;;;1.07;0.87;;;;;;;;;;5091407;28;20420;-69
2022/09/28 02:54:21;;;;;;;1.13;0.60;;;;;;;;;;5091787;28;20189;-69
2022/09/28 02:57:00;;;;;;;1.83;0.70;;;;;;;;;;5049892;28;20495;-69
2022/09/28 02:59:39;;;;;;;2.10;0.50;;;;;;;;;;5091737;28;20506;-69
2022/09/28 03:02:08;;;;;;;0.87;0.60;;;;;;;;;;5091557;28;20459;-68
2022/09/28 03:04:53;;;;;;;0.70;0.60;;;;;;;;;;5089295;28;20496;-69
2022/09/28 03:07:37;;;;;;;6.07;0.70;;;;;;;;;;5090889;28;20435;-69
2022/09/28 03:10:03;;;;;;;0.83;0.50;;;;;;;;;;5091762;28;20460;-69
2022/09/28 03:12:30;;;;;;;0.50;0.50;;;;;;;;;;5091172;28;20523;-69
2022/09/28 03:15:28;;;;;;;0.83;0.60;;;;;;;;;;5090346;28;20440;-68
2022/09/28 03:17:54;;;;;;;0.70;0.70;;;;;;;;;;5055647;28;20473;-69
2022/09/28 03:20:20;;;;;;;1.43;0.40;;;;;;;;;;5091132;28;20448;-69
2022/09/28 03:22:46;;;;;;;0.50;0.50;;;;;;;;;;5090908;28;20420;-68
2022/09/28 03:25:14;;;;;;;0.30;0.30;;;;;;;;;;5090633;28;20486;-69
2022/09/28 03:27:40;;;;;;;0.67;0.67;;;;;;;;;;5090076;28;20427;-69
2022/09/28 03:30:06;;;;;;;0.53;0.53;;;;;;;;;;5090716;28;20436;-69
2022/09/28 03:32:32;;;;;;;5.03;0.40;;;;;;;;;;5090697;28;20453;-68
2022/09/28 03:34:58;;;;;;;1.33;0.40;;;;;;;;;;5090628;28;20429;-69
2022/09/28 03:37:24;;;;;;;4.53;0.77;;;;;;;;;;5089487;28;20437;-69
2022/09/28 03:39:50;;;;;;;1.63;1.13;;;;;;;;;;5091126;28;21310;-69
2022/09/28 03:42:16;;;;;;;1.03;0.67;;;;;;;;;;5090582;28;20430;-69
2022/09/28 03:44:42;;;;;;;0.93;0.30;;;;;;;;;;5090629;28;20565;-69
2022/09/28 03:47:08;;;;;;;0.50;0.40;;;;;;;;;;5090353;28;20925;-69
2022/09/28 03:49:34;;;;;;;5.73;0.50;;;;;;;;;;5090343;28;20861;-70
2022/09/28 03:52:00;;;;;;;0.67;0.50;;;;;;;;;;5090476;28;20424;-69
2022/09/28 03:54:26;;;;;;;1.90;0.40;;;;;;;;;;5089461;28;20997;-69
2022/09/28 03:56:52;;;;;;;0.40;0.40;;;;;;;;;;5089339;28;20428;-69
2022/09/28 03:59:18;;;;;;;0.37;0.37;;;;;;;;;;5090214;28;20459;-69
2022/09/28 04:01:44;;;;;;;0.30;0.30;;;;;;;;;;5089722;28;20482;-69
2022/09/28 04:04:13;;;;;;;0.50;0.50;;;;;;;;;;5089300;28;20475;-68
2022/09/28 04:06:39;;;;;;;0.47;0.40;;;;;;;;;;5090031;28;20444;-69
2022/09/28 04:09:05;;;;;;;0.50;0.50;;;;;;;;;;5089194;28;20997;-69
2022/09/28 04:11:31;;;;;;;0.83;0.30;;;;;;;;;;5089855;28;20424;-69
2022/09/28 04:13:57;;;;;;;0.60;0.60;;;;;;;;;;5090189;28;20908;-69
2022/09/28 04:16:23;;;;;;;0.60;0.60;;;;;;;;;;5089155;28;20916;-69
2022/09/28 04:18:49;;;;;;;0.83;0.83;;;;;;;;;;5090369;28;20421;-69
2022/09/28 04:21:16;;;;;;;0.40;0.40;;;;;;;;;;5089293;28;21213;-69
2022/09/28 04:23:43;;;;;;;1.80;0.40;;;;;;;;;;5090007;28;20428;-69
2022/09/28 04:26:23;;;;;;;0.50;0.50;;;;;;;;;;5088485;28;20493;-69
2022/09/28 04:31:39;;;;;;;0.50;0.50;;;;;;;;;;5087424;28;20462;-69
2022/09/28 04:34:05;;;;;;;0.30;0.30;;;;;;;;;;5089539;28;20489;-69
2022/09/28 04:36:31;;;;;;;0.40;0.40;;;;;;;;;;5088645;28;20429;-69
2022/09/28 04:38:56;;;;;;;0.30;0.30;;;;;;;;;;5089112;28;20443;-69
2022/09/28 04:41:22;;;;;;;0.40;0.30;;;;;;;;;;5089720;28;20424;-69
2022/09/28 04:43:49;;;;;;;0.50;0.50;;;;;;;;;;5089349;28;20519;-70
2022/09/28 04:46:15;;;;;;;1.30;0.70;;;;;;;;;;5090006;28;20456;-69
2022/09/28 04:48:41;;;;;;;0.40;0.40;;;;;;;;;;5089675;28;20837;-69
2022/09/28 04:51:07;;;;;;;0.70;0.43;;;;;;;;;;5089431;28;20416;-69
2022/09/28 04:53:33;;;;;;;0.73;0.43;;;;;;;;;;5089607;28;20478;-69
2022/09/28 04:55:59;;;;;;;0.30;0.30;;;;;;;;;;5089792;28;20432;-69
2022/09/28 04:58:26;;;;;;;0.40;0.40;;;;;;;;;;5088794;28;20785;-69
2022/09/28 05:00:53;;;;;;;0.30;0.30;;;;;;;;;;5089236;28;20468;-68
2022/09/28 05:03:19;;;;;;;0.37;0.33;;;;;;;;;;5088310;28;20445;-69
2022/09/28 05:05:46;;;;;;;0.30;0.30;;;;;;;;;;5088381;28;20482;-69
2022/09/28 05:08:12;;;;;;;0.30;0.30;;;;;;;;;;5089510;28;20436;-69
2022/09/28 05:10:39;;;;;;;0.57;0.33;;;;;;;;;;5089506;28;20436;-69
2022/09/28 05:13:05;;;;;;;0.70;0.60;;;;;;;;;;5085357;28;20522;-69
2022/09/28 05:15:33;;;;;;;0.40;0.40;;;;;;;;;;5082041;28;20437;-68
2022/09/28 05:17:59;;;;;;;0.30;0.30;;;;;;;;;;5088303;28;20428;-69
2022/09/28 05:20:25;;;;;;;1.33;0.50;;;;;;;;;;5087680;28;20439;-69
2022/09/28 05:22:51;;;;;;;1.27;0.63;;;;;;;;;;5088443;28;20420;-69
2022/09/28 05:25:17;;;;;;;0.53;0.40;;;;;;;;;;5086170;28;20487;-69
2022/09/28 05:27:43;;;;;;;1.17;0.40;;;;;;;;;;5070637;28;20523;-69
2022/09/28 05:30:10;;;;;;;1.53;0.70;;;;;;;;;;5089650;28;20532;-68
2022/09/28 05:32:43;;;;;;;3.87;0.50;;;;;;;;;;5087544;28;20464;-70
2022/09/28 05:35:10;;;;;;;1.90;0.50;;;;;;;;;;5087317;28;20807;-70
2022/09/28 05:37:36;;;;;;;1.77;0.37;;;;;;;;;;5087231;28;20836;-70
2022/09/28 05:40:02;;;;;;;0.70;0.60;;;;;;;;;;5086835;28;20442;-69
2022/09/28 05:42:29;;;;;;;4.30;2.90;;;;;;;;;;5090870;28;20429;-70
2022/09/28 05:44:57;;;;;;;2.10;1.10;;;;;;;;;;5091353;28;20476;-68
2022/09/28 05:47:24;;;;;;;0.60;0.60;;;;;;;;;;5090783;28;20261;-69
2022/09/28 05:49:50;;;;;;;0.30;0.30;;;;;;;;;;5086664;28;20424;-70
2022/09/28 05:52:16;;;;;;;5.93;0.73;;;;;;;;;;5091368;28;20415;-69
2022/09/28 05:54:42;;;;;;;2.80;1.63;;;;;;;;;;5089282;28;20485;-69
2022/09/28 05:57:08;;;;;;;1.37;1.27;;;;;;;;;;5089091;28;20493;-69
2022/09/28 05:59:34;;;;;;;0.87;0.87;;;;;;;;;;5090906;28;20484;-70
2022/09/28 06:02:01;;;;;;;0.50;0.50;;;;;;;;;;5089694;28;21029;-69
2022/09/28 06:04:27;;;;;;;0.70;0.70;;;;;;;;;;5091467;28;20492;-68
2022/09/28 06:06:53;;;;;;;0.70;0.70;;;;;;;;;;5091196;28;20485;-68
2022/09/28 06:09:19;;;;;;;0.47;0.47;;;;;;;;;;5091033;28;20425;-69
2022/09/28 06:11:47;;;;;;;0.80;0.80;;;;;;;;;;5090675;28;20456;-69
2022/09/28 06:14:13;;;;;;;1.80;0.70;;;;;;;;;;5071879;28;20798;-68
2022/09/28 06:16:39;;;;;;;0.40;0.40;;;;;;;;;;5087056;28;20515;-69
2022/09/28 06:19:05;;;;;;;0.50;0.50;;;;;;;;;;5089034;28;20524;-69
2022/09/28 06:21:31;;;;;;;0.60;0.60;;;;;;;;;;5089430;28;20460;-69
2022/09/28 06:23:57;;;;;;;0.60;0.60;;;;;;;;;;5090613;28;20474;-69
2022/09/28 06:26:23;;;;;;;1.00;0.57;;;;;;;;;;5090386;28;20444;-68
2022/09/28 06:28:49;;;;;;;0.63;0.63;;;;;;;;;;5089042;28;20781;-68
2022/09/28 06:31:16;;;;;;;0.40;0.40;;;;;;;;;;5090391;28;20440;-68
2022/09/28 06:33:42;;;;;;;0.50;0.30;;;;;;;;;;5090296;28;20486;-68
2022/09/28 06:36:09;;;;;;;2.97;0.53;;;;;;;;;;5088042;28;20437;-68
2022/09/28 06:38:35;;;;;;;3.33;2.50;;;;;;;;;;5074216;28;20884;-71
2022/09/28 06:41:01;;;;;;;2.70;2.60;;;;;;;;;;5086594;28;20744;-68
2022/09/28 06:43:28;;;;;;;0.43;0.40;;;;;;;;;;5087986;28;20486;-70
2022/09/28 06:45:54;;;;;;;0.57;0.40;;;;;;;;;;5085373;28;20484;-70
2022/09/28 06:48:20;;;;;;;0.40;0.40;;;;;;;;;;5088681;28;20523;-69
2022/09/28 06:50:46;;;;;;;1.23;0.60;;;;;;;;;;5089448;28;20553;-68
2022/09/28 06:53:13;;;;;;;0.40;0.40;;;;;;;;;;5088217;28;20464;-68
2022/09/28 06:55:40;;;;;;;0.73;0.73;;;;;;;;;;5090105;28;20531;-71
2022/09/28 06:58:07;;;;;;;0.60;0.53;;;;;;;;;;5089845;28;20795;-69
2022/09/28 07:00:35;;;;;;;0.60;0.60;;;;;;;;;;5087152;28;20480;-71
2022/09/28 07:03:01;;;;;;;1.27;0.70;;;;;;;;;;5087600;28;20433;-68
2022/09/28 07:05:28;;;;;;;0.70;0.70;;;;;;;;;;5086863;28;20691;-71
2022/09/28 07:07:54;;;;;;;0.43;0.43;;;;;;;;;;5086534;28;20464;-70
2022/09/28 07:10:22;;;;;;;0.40;0.40;;;;;;;;;;5090659;28;20448;-64
2022/09/28 07:12:48;;;;;;;2.03;0.80;;;;;;;;;;5088459;28;20920;-70
2022/09/28 07:15:14;;;;;;;0.57;0.57;;;;;;;;;;5088336;28;20231;-68
2022/09/28 07:17:40;;;;;;;0.50;0.50;;;;;;;;;;5090107;28;20448;-69
2022/09/28 07:20:06;;;;;;;2.87;0.90;;;;;;;;;;5088904;28;20445;-69
2022/09/28 07:22:33;;;;;;;0.67;0.53;;;;;;;;;;5088076;28;20437;-68
2022/09/28 07:24:59;;;;;;;0.57;0.57;;;;;;;;;;5089242;28;20480;-68
2022/09/28 07:27:25;;;;;;;0.60;0.60;;;;;;;;;;5088573;28;20439;-68
2022/09/28 07:29:54;;;;;;;0.60;0.60;;;;;;;;;;5089534;28;20471;-69
2022/09/28 07:32:21;;;;;;;1.03;0.60;;;;;;;;;;5089306;28;20416;-69
2022/09/28 07:34:47;;;;;;;1.13;0.97;;;;;;;;;;5086503;28;20440;-68
2022/09/28 07:37:13;;;;;;;4.20;1.43;;;;;;;;;;5090037;28;20447;-68
2022/09/28 07:42:29;;;;;;;1.20;1.20;;;;;;;;;;5088430;28;20505;-70
2022/09/28 07:44:55;;;;;;;1.03;0.80;;;;;;;;;;5089130;28;20484;-72
2022/09/28 07:47:25;;;;;;;2.13;0.70;;;;;;;;;;5088394;28;20430;-70
2022/09/28 07:49:53;;;;;;;0.93;0.63;;;;;;;;;;5088986;28;20428;-71
2022/09/28 07:52:22;;;;;;;0.97;0.97;;;;;;;;;;5089879;28;20558;-71
2022/09/28 07:54:51;;;;;;;6.27;5.60;;;;;;;;;;5087696;28;20432;-70
2022/09/28 07:57:17;;;;;;;6.70;5.80;;;;;;;;;;5090026;28;20506;-69
2022/09/28 07:59:43;;;;;;;4.47;4.07;;;;;;;;;;5085776;28;20444;-68
2022/09/28 08:02:10;;;;;;;6.60;4.27;;;;;;;;;;5089278;28;20435;-69
2022/09/28 08:04:36;;;;;;;2.47;2.27;;;;;;;;;;5085307;28;20475;-69
2022/09/28 08:07:02;;;;;;;4.40;4.00;;;;;;;;;;5087370;28;20456;-68
2022/09/28 08:09:29;;;;;;;3.13;2.53;;;;;;;;;;5089046;28;20786;-69
2022/09/28 08:11:56;;;;;;;1.87;1.77;;;;;;;;;;5089496;28;20443;-69
2022/09/28 08:14:23;;;;;;;8.20;4.97;;;;;;;;;;5088366;28;20420;-69
2022/09/28 08:16:49;;;;;;;3.97;3.57;;;;;;;;;;5088930;28;20428;-69
2022/09/28 08:19:15;;;;;;;6.57;4.20;;;;;;;;;;5086005;28;20432;-69
2022/09/28 08:21:44;;;;;;;4.88;4.40;;;;;;;;;;5087932;28;20429;-64
2022/09/28 08:24:11;;;;;;;3.63;2.97;;;;;;;;;;5085941;28;20217;-69
2022/09/28 08:26:36;;;;;;;4.23;3.87;;;;;;;;;;5087645;28;20924;-69
2022/09/28 08:29:02;;;;;;;5.13;2.57;;;;;;;;;;5085069;28;20482;-68
2022/09/28 08:31:29;;;;;;;1.63;1.50;;;;;;;;;;5088205;28;20432;-66
2022/09/28 08:33:56;;;;;;;0.93;0.93;;;;;;;;;;5087759;28;20466;-69
2022/09/28 08:36:22;;;;;;;0.77;0.60;;;;;;;;;;5085656;28;20527;-68
2022/09/28 08:38:49;;;;;;;1.23;0.50;;;;;;;;;;5087695;28;20481;-69
2022/09/28 08:41:18;;;;;;;1.90;1.90;;;;;;;;;;5085939;28;20867;-69
2022/09/28 08:43:59;;;;;;;5.57;5.20;;;;;;;;;;5089096;28;20420;-69
2022/09/28 08:46:36;;;;;;;5.60;5.10;;;;;;;;;;5088816;28;20458;-69
2022/09/28 08:49:07;;;;;;;6.13;4.67;;;;;;;;;;5088234;28;20420;-71
2022/09/28 08:51:53;;;;;;;2.37;2.27;;;;;;;;;;5089105;28;20439;-70
2022/09/28 08:54:28;;;;;;;1.47;1.10;;;;;;;;;;5072054;28;20486;-65
2022/09/28 08:57:09;;;;;;;0.83;0.83;;;;;;;;;;5089522;28;20514;-71
2022/09/28 08:59:56;;;;;;;4.77;1.33;;;;;;;;;;5085573;28;20848;-69
2022/09/28 09:02:32;;;;;;;2.00;1.20;;;;;;;;;;5087961;28;20573;-69
2022/09/28 09:04:58;;;;;;;3.63;1.30;;;;;;;;;;5086942;28;20464;-72
2022/09/28 09:07:24;;;;;;;0.60;0.60;;;;;;;;;;5089453;28;20428;-69
2022/09/28 09:10:16;;;;;;;0.80;0.80;;;;;;;;;;5088459;28;20436;-69
2022/09/28 09:12:48;;;;;;;1.00;1.00;;;;;;;;;;5086523;28;20573;-72
2022/09/28 09:15:16;;;;;;;0.80;0.80;;;;;;;;;;5089957;28;20416;-70
2022/09/28 09:17:47;;;;;;;3.67;1.97;;;;;;;;;;5093562;28;20455;-68
2022/09/28 09:20:24;;;;;;;0.70;0.60;;;;;;;;;;5093239;28;20550;-68
2022/09/28 09:22:58;;;;;;;0.90;0.87;;;;;;;;;;5092552;28;20778;-71
2022/09/28 09:25:27;;;;;;;0.40;0.40;;;;;;;;;;5092468;28;20475;-68
2022/09/28 09:27:53;;;;;;;0.40;0.40;;;;;;;;;;5093226;28;20988;-69
2022/09/28 09:30:25;;;;;;;0.57;0.57;;;;;;;;;;5093632;28;20520;-69
2022/09/28 09:33:10;;;;;;;0.67;0.50;;;;;;;;;;5093068;28;20417;-69
2022/09/28 09:35:55;;;;;;;0.67;0.50;;;;;;;;;;5091895;28;20409;-69
2022/09/28 09:38:39;;;;;;;2.60;2.43;;;;;;;;;;5091827;28;20416;-71
2022/09/28 09:41:16;;;;;;;4.43;0.63;;;;;;;;;;5092003;28;20420;-69
2022/09/28 09:43:58;;;;;;;0.50;0.50;;;;;;;;;;5091993;28;20485;-71
2022/09/28 09:46:27;;;;;;;1.17;1.17;;;;;;;;;;5093313;28;20493;-69
2022/09/28 09:49:15;;;;;;;2.50;1.67;;;;;;;;;;5092493;28;20462;-68
2022/09/28 09:52:04;;;;;;;2.60;2.50;;;;;;;;;;5092998;28;20421;-69
2022/09/28 09:54:33;;;;;;;6.00;5.73;;;;;;;;;;5084665;28;20922;-69
2022/09/28 09:57:07;;;;;;;1.20;1.20;;;;;;;;;;5092851;28;20463;-71
2022/09/28 09:59:35;;;;;;;1.40;1.30;;;;;;;;;;5091221;28;20460;-69
2022/09/28 10:02:17;;;;;;;2.30;0.93;;;;;;;;;;5090658;28;20420;-69
2022/09/28 10:04:45;;;;;;;4.33;1.10;;;;;;;;;;5089515;28;20467;-70
2022/09/28 10:07:15;;;;;;;1.10;1.00;;;;;;;;;;5092433;28;20719;-69
2022/09/28 10:09:44;;;;;;;2.13;1.07;;;;;;;;;;5092814;28;20409;-71
2022/09/28 10:12:19;;;;;;;1.43;0.90;;;;;;;;;;5092314;28;20444;-70
2022/09/28 10:14:45;;;;;;;1.10;1.07;;;;;;;;;;5092498;28;20427;-71
2022/09/28 10:17:14;;;;;;;0.60;0.60;;;;;;;;;;5090044;28;20420;-71
2022/09/28 10:19:41;;;;;;;1.60;1.20;;;;;;;;;;5092262;28;20916;-69
2022/09/28 10:22:14;;;;;;;3.90;0.73;;;;;;;;;;5092539;28;20420;-71
2022/09/28 10:24:49;;;;;;;1.50;0.50;;;;;;;;;;5092208;28;20963;-69
2022/09/28 10:27:16;;;;;;;1.23;1.03;;;;;;;;;;5091519;28;20537;-68
2022/09/28 10:29:50;;;;;;;2.87;1.20;;;;;;;;;;5092459;28;20434;-72
2022/09/28 10:32:22;;;;;;;1.60;1.00;;;;;;;;;;5091762;28;20420;-71
2022/09/28 10:34:48;;;;;;;1.20;1.20;;;;;;;;;;5091912;28;20420;-71
2022/09/28 10:37:15;;;;;;;0.67;0.50;;;;;;;;;;5091786;28;20470;-70
2022/09/28 10:39:46;;;;;;;1.20;0.70;;;;;;;;;;5089964;28;20962;-70
2022/09/28 10:42:17;;;;;;;0.60;0.60;;;;;;;;;;5090438;28;20427;-70
2022/09/28 10:44:49;;;;;;;1.00;0.30;;;;;;;;;;5091999;28;20488;-71
2022/09/28 10:47:17;;;;;;;1.53;0.90;;;;;;;;;;5091711;28;21377;-69
2022/09/28 10:49:45;;;;;;;1.93;0.90;;;;;;;;;;5091784;28;20916;-71
2022/09/28 10:52:49;;;;;;;0.67;0.67;;;;;;;;;;5090593;28;20957;-71
2022/09/28 10:55:22;;;;;;;0.60;0.60;;;;;;;;;;5028760;28;20435;-68
2022/09/28 10:57:48;;;;;;;0.50;0.50;;;;;;;;;;5024000;28;20473;-70
2022/09/28 11:00:35;;;;;;;0.60;0.60;;;;;;;;;;5060459;28;20500;-70
2022/09/28 11:03:01;;;;;;;0.87;0.50;;;;;;;;;;5091663;28;20409;-69
2022/09/28 11:05:27;;;;;;;0.50;0.50;;;;;;;;;;5088915;28;21105;-71
2022/09/28 11:07:54;;;;;;;1.70;1.70;;;;;;;;;;5091532;28;20413;-71
2022/09/28 11:10:28;;;;;;;3.97;2.83;;;;;;;;;;5091966;28;20456;-68
2022/09/28 11:12:54;;;;;;;1.20;1.13;;;;;;;;;;5091552;28;20411;-70
2022/09/28 11:15:31;;;;;;;0.80;0.80;;;;;;;;;;5091415;28;20460;-69
2022/09/28 11:18:16;;;;;;;0.80;0.80;;;;;;;;;;5091165;28;20507;-69
2022/09/28 11:20:42;;;;;;;1.17;0.90;;;;;;;;;;5091484;28;20425;-68
2022/09/28 11:23:17;;;;;;;0.93;0.93;;;;;;;;;;5091322;28;20428;-69
2022/09/28 11:25:54;;;;;;;2.63;2.53;;;;;;;;;;5091332;28;20849;-68
2022/09/28 11:28:22;;;;;;;0.90;0.90;;;;;;;;;;5090971;28;20519;-69
2022/09/28 11:30:50;;;;;;;2.13;1.93;;;;;;;;;;5088828;28;20425;-69
2022/09/28 11:33:25;;;;;;;1.83;1.23;;;;;;;;;;5089785;28;20931;-69
2022/09/28 11:35:59;;;;;;;0.97;0.97;;;;;;;;;;5091162;28;20420;-68
2022/09/28 11:38:46;;;;;;;1.17;0.60;;;;;;;;;;5090654;28;20417;-68
2022/09/28 11:41:18;;;;;;;3.93;1.13;;;;;;;;;;5090893;28;20424;-70
2022/09/28 11:43:50;;;;;;;1.17;1.00;;;;;;;;;;5089301;28;20640;-69
2022/09/28 11:46:23;;;;;;;1.33;1.33;;;;;;;;;;5090849;28;20644;-69
2022/09/28 11:48:51;;;;;;;1.07;1.07;;;;;;;;;;5090171;28;20483;-71
2022/09/28 11:51:23;;;;;;;0.87;0.87;;;;;;;;;;5090784;28;20424;-70
2022/09/28 11:53:52;;;;;;;2.40;1.00;;;;;;;;;;5089560;28;20507;-69
2022/09/28 11:56:35;;;;;;;1.30;1.20;;;;;;;;;;5089423;28;20435;-70
2022/09/28 11:59:08;;;;;;;0.70;0.70;;;;;;;;;;5088850;28;20479;-69
2022/09/28 12:01:52;;;;;;;0.60;0.60;;;;;;;;;;5064919;28;21063;-69
2022/09/28 12:04:28;;;;;;;0.83;0.70;;;;;;;;;;5061619;28;20487;-70
2022/09/28 12:06:59;;;;;;;0.63;0.63;;;;;;;;;;5062763;28;20440;-68
2022/09/28 12:09:35;;;;;;;0.70;0.70;;;;;;;;;;5065490;28;20456;-69
2022/09/28 12:12:03;;;;;;;1.90;0.50;;;;;;;;;;5064549;28;20507;-69
2022/09/28 12:14:31;;;;;;;0.90;0.90;;;;;;;;;;5065852;28;20906;-68
2022/09/28 12:17:08;;;;;;;0.70;0.70;;;;;;;;;;5065425;28;20434;-69
2022/09/28 12:19:54;;;;;;;1.20;1.10;;;;;;;;;;5062209;28;20472;-71
2022/09/28 12:22:23;;;;;;;2.13;2.03;;;;;;;;;;5062094;28;21001;-70
2022/09/28 12:24:50;;;;;;;2.10;2.10;;;;;;;;;;5066235;28;20429;-70
2022/09/28 12:27:22;;;;;;;3.33;1.30;;;;;;;;;;5066290;28;20510;-69
2022/09/28 12:30:07;;;;;;;3.27;2.80;;;;;;;;;;5063951;28;20434;-69
2022/09/28 12:32:51;;;;;;;2.47;2.37;;;;;;;;;;5065155;28;20432;-69
2022/09/28 12:35:17;;;;;;;1.50;1.40;;;;;;;;;;5064340;28;20520;-70
2022/09/28 12:37:49;;;;;;;1.83;1.73;;;;;;;;;;5065961;28;21014;-69
2022/09/28 12:40:27;;;;;;;4.43;4.10;;;;;;;;;;5064591;28;20465;-69
2022/09/28 12:43:03;;;;;;;2.10;1.80;;;;;;;;;;5063858;28;20437;-68
2022/09/28 12:45:41;;;;;;;2.50;2.40;;;;;;;;;;5065065;28;20905;-71
2022/09/28 12:48:36;;;;;;;1.93;0.83;;;;;;;;;;5065001;28;20492;-71
2022/09/28 12:51:02;;;;;;;1.80;1.70;;;;;;;;;;5043975;28;20446;-71
2022/09/28 12:53:37;;;;;;;2.00;1.90;;;;;;;;;;5065892;28;20413;-71
2022/09/28 12:56:23;;;;;;;2.47;2.33;;;;;;;;;;5066167;28;20433;-69
2022/09/28 12:58:49;;;;;;;8.30;3.17;;;;;;;;;;5061411;28;20421;-71
2022/09/28 13:01:34;;;;;;;0.97;0.97;;;;;;;;;;5064596;28;20562;-70
2022/09/28 13:04:19;;;;;;;0.70;0.70;;;;;;;;;;5065345;28;20264;-69
2022/09/28 13:06:56;;;;;;;0.80;0.80;;;;;;;;;;5064113;28;20425;-68
2022/09/28 13:09:23;;;;;;;2.97;1.20;;;;;;;;;;5063925;28;20410;-69
2022/09/28 13:12:01;;;;;;;1.23;0.83;;;;;;;;;;5058070;28;20445;-72
2022/09/28 13:14:47;;;;;;;1.00;1.00;;;;;;;;;;5052102;28;20957;-71
2022/09/28 13:17:28;;;;;;;2.53;1.40;;;;;;;;;;5050978;28;20431;-69
2022/09/28 13:19:58;;;;;;;1.90;1.80;;;;;;;;;;5050016;28;20509;-70
2022/09/28 13:22:27;;;;;;;2.47;2.27;;;;;;;;;;5050455;28;20433;-70
2022/09/28 13:24:55;;;;;;;3.60;1.00;;;;;;;;;;5050635;28;20422;-69
2022/09/28 13:27:44;;;;;;;3.37;1.50;;;;;;;;;;5051809;28;20475;-71
2022/09/28 13:30:13;;;;;;;1.20;1.10;;;;;;;;;;5050292;28;20437;-69
2022/09/28 13:32:39;;;;;;;1.43;1.00;;;;;;;;;;5050840;28;20427;-71
2022/09/28 13:35:05;;;;;;;1.67;1.67;;;;;;;;;;5050447;28;20444;-69
2022/09/28 13:37:33;;;;;;;4.23;3.50;;;;;;;;;;5051092;28;20442;-69
2022/09/28 13:40:04;;;;;;;3.57;1.83;;;;;;;;;;5050824;28;20465;-70
2022/09/28 13:42:40;;;;;;;4.00;3.40;;;;;;;;;;5051994;28;20474;-69
2022/09/28 13:45:21;;;;;;;8.00;5.83;;;;;;;;;;5051160;28;20514;-70
2022/09/28 13:47:50;;;;;;;4.33;3.63;;;;;;;;;;5050720;28;20488;-68
2022/09/28 13:50:29;;;;;;;8.60;4.57;;;;;;;;;;5050612;28;20435;-70
2022/09/28 13:53:13;;;;;;;5.50;3.90;;;;;;;;;;5045435;28;20430;-70
2022/09/28 13:55:42;;;;;;;4.53;3.27;;;;;;;;;;5046841;28;20409;-71
2022/09/28 13:58:17;;;;;;;2.70;2.50;;;;;;;;;;5047229;28;20445;-68
2022/09/28 14:00:50;;;;;;;2.30;2.20;;;;;;;;;;5046322;28;20485;-71
2022/09/28 14:03:20;;;;;;;4.63;3.20;;;;;;;;;;5047169;28;20488;-71
2022/09/28 14:06:03;;;;;;;2.43;2.23;;;;;;;;;;5049080;28;20493;-69
2022/09/28 14:08:33;;;;;;;1.40;1.40;;;;;;;;;;5049151;28;20826;-70
2022/09/28 14:11:20;;;;;;;1.13;1.03;;;;;;;;;;5050682;28;20950;-71
2022/09/28 14:14:06;;;;;;;3.77;2.10;;;;;;;;;;5050204;28;20423;-68
2022/09/28 14:16:32;;;;;;;4.40;1.50;;;;;;;;;;5050637;28;20981;-71
2022/09/28 14:19:17;;;;;;;1.30;1.20;;;;;;;;;;5048194;28;20517;-68
2022/09/28 14:22:02;;;;;;;0.97;0.87;;;;;;;;;;5048284;28;20468;-69
2022/09/28 14:24:29;;;;;;;1.37;1.37;;;;;;;;;;5048537;28;20433;-69
2022/09/28 14:26:57;;;;;;;0.73;0.73;;;;;;;;;;5050848;28;20423;-71
2022/09/28 14:29:29;;;;;;;1.00;0.77;;;;;;;;;;5049010;28;20814;-71
2022/09/28 14:31:57;;;;;;;2.10;1.30;;;;;;;;;;5049679;28;20419;-70
2022/09/28 14:34:33;;;;;;;0.67;0.67;;;;;;;;;;5049036;28;20933;-70
2022/09/28 14:42:30;;;;;;;0.90;0.90;;;;;;;;;;5049013;28;20779;-69
2022/09/28 14:45:02;;;;;;;0.97;0.90;;;;;;;;;;5048687;28;20430;-69
2022/09/28 14:47:40;;;;;;;1.10;1.10;;;;;;;;;;5048849;28;20509;-69
2022/09/28 14:50:24;;;;;;;1.20;1.10;;;;;;;;;;5047755;28;20437;-69
2022/09/28 14:52:52;;;;;;;1.33;0.87;;;;;;;;;;5048454;28;20459;-71
2022/09/28 14:55:22;;;;;;;2.10;2.00;;;;;;;;;;5050347;28;20934;-71
2022/09/28 14:57:54;;;;;;;1.23;1.00;;;;;;;;;;5050178;28;20415;-71
2022/09/28 15:00:22;;;;;;;2.33;1.00;;;;;;;;;;5043764;28;20565;-70
2022/09/28 15:02:51;;;;;;;3.47;1.53;;;;;;;;;;5045491;28;20476;-69
2022/09/28 15:05:23;;;;;;;0.90;0.90;;;;;;;;;;5049256;28;20430;-69
2022/09/28 15:07:51;;;;;;;2.20;1.50;;;;;;;;;;5048185;28;20434;-68
2022/09/28 15:10:31;;;;;;;3.50;2.40;;;;;;;;;;5049841;28;20906;-71
2022/09/28 15:13:00;;;;;;;3.47;2.50;;;;;;;;;;5049388;28;20445;-69
2022/09/28 15:15:37;;;;;;;3.57;3.30;;;;;;;;;;5048619;28;20430;-69